• Join FlightAware (Why Join?)
  • Login
  • US Flag 
03:03PM EDT


 

Airport Tracker/Info


-or-


 

Live Flight TrackerFlight Track Log ✈ RPA3446 ✈ 24-Jun-2014 ✈ KCVG - KPHL

Flight Track Log - Related Links

Times and Time Zones

All times are in EDT time to prevent confusion due to time zone crossing. See the RPA3446 flight status page for this flight to view local times or setup timezone preferences in your user account.

Time Position Orientation Groundspeed Altitude Reporting Facility
EDT Latitude Longitude Course Direction KTS MPH feet Rate Location/Type
06:21PM 39.0333 -84.6500 101° East 149 171 1,400  Level Cincinnati TRACON
06:22PM 39.0000 -84.5667 117° Southeast 236 272 4,000 2,040 Climbing Cincinnati TRACON
06:23PM 38.9667 -84.4667 113° Southeast 286 329 6,200 2,280 Climbing Cincinnati TRACON
06:24PM 38.9083 -84.3329 97° East  Level FlightAware Approximate
06:25PM 38.8919 -84.1972 101° East  Level FlightAware Approximate
06:25PM 38.9408 -84.3300 104° East 297 342 9,800  Level Indianapolis Center
06:26PM 38.8712 -84.0625 101° East  Level FlightAware Approximate
06:26PM 38.9072 -84.2297 113° Southeast 319 367 11,000  Level Indianapolis Center
06:27PM 38.8375 -84.1803 151° Southeast 294 338 11,000  Level Indianapolis Center
06:28PM 38.7464 -84.1447 163° South 289 333 11,000  Level Indianapolis Center
06:29PM 38.6750 -84.0978 153° Southeast 290 334 11,000  Level Indianapolis Center
06:30PM 38.6161 -84.0281 137° Southeast 300 345 11,000  Level Indianapolis Center
06:31PM 38.5833 -83.9267 112° Southeast 306 352 11,000  Level Indianapolis Center
06:32PM 38.5544 -83.8261 110° East 305 351 11,000  Level Indianapolis Center
06:33PM 38.5211 -83.7042 109° East 306 352 11,000  Level Indianapolis Center
06:34PM 38.4933 -83.6011 109° East 307 353 11,000  Level Indianapolis Center
06:35PM 38.4642 -83.4997 110° East 307 353 11,000  Level Indianapolis Center
06:36PM 38.4367 -83.3956 109° East 307 353 11,000  Level Indianapolis Center
06:37PM 38.4078 -83.2931 110° East 307 353 11,000  Level Indianapolis Center
06:38PM 38.3792 -83.1911 110° East 307 353 11,000  Level Indianapolis Center
06:39PM 38.3444 -83.0700 110° East 307 353 11,000  Level Indianapolis Center
06:40PM 38.3167 -82.9667 109° East 307 353 11,000  Level Indianapolis Center
06:41PM 38.3075 -82.8569 96° East 306 352 11,000  Level Indianapolis Center
06:42PM 38.3222 -82.7436 81° East 319 367 11,000  Level Indianapolis Center
06:43PM 38.3367 -82.6300 81° East 323 372 11,000  Level Indianapolis Center
06:45PM 38.3142 -82.5047 103° East 313 360 11,000  Level Indianapolis Center
06:46PM 38.2833 -82.4086 112° Southeast 312 359 11,000  Level Indianapolis Center
06:47PM 38.2486 -82.3089 114° Southeast 311 358 11,000  Level Indianapolis Center
06:48PM 38.2136 -82.2106 114° Southeast 311 358 11,000  Level Indianapolis Center
06:49PM 38.1725 -82.1183 120° Southeast 308 354 11,000  Level Indianapolis Center
06:50PM 38.1072 -82.0225 131° Southeast 302 348 11,000 -60 Level Indianapolis Center
06:51PM 38.0628 -81.9311 122° Southeast 302 348 10,900 -60 Descending Indianapolis Center
06:52PM 38.0347 -81.8311 110° East 303 349 10,900  Level Indianapolis Center
06:53PM 38.0003 -81.7331 114° Southeast 303 349 10,900  Level Indianapolis Center
06:54PM 37.9669 -81.6361 114° Southeast 303 349 10,900  Level Indianapolis Center
06:55PM 37.9264 -81.5178 113° Southeast 303 349 10,900  Level Indianapolis Center
06:56PM 37.8886 -81.4197 116° Southeast 310 357 10,900  Level Indianapolis Center
06:57PM 37.8539 -81.3211 114° Southeast 310 357 10,900  Level Indianapolis Center
06:58PM 37.8194 -81.2261 115° Southeast 310 357 11,000  Climbing Indianapolis Center
06:59PM 37.7836 -81.1308 115° Southeast 305 351 11,000  Level Indianapolis Center
07:00PM 37.7883 -81.0192 87° East 318 366 11,000  Level Indianapolis Center
07:01PM 37.7964 -80.8872 86° East 317 365 11,000  Level Indianapolis Center
07:02PM 37.8036 -80.7786 85° East 315 362 11,000  Level Indianapolis Center
07:03PM 37.8114 -80.6681 85° East 314 361 11,000  Level Indianapolis Center
07:04PM 37.8150 -80.5786 87° East 309 356 11,000  Level Washington Center
07:05PM 37.8217 -80.4711 85° East 309 356 11,000  Level Washington Center
07:06PM 37.8281 -80.3611 86° East 309 356 11,000  Level Washington Center
07:07PM 37.8367 -80.2514 84° East 309 356 11,000  Level Washington Center
07:08PM 37.8428 -80.1439 86° East 309 356 11,100  Climbing Washington Center
07:09PM 37.8511 -80.0339 84° East 309 356 11,100  Level Washington Center
07:10PM 37.8572 -79.9239 86° East 309 356 11,100  Level Washington Center
07:11PM 37.8633 -79.8111 86° East 309 356 11,100  Level Washington Center
07:12PM 37.8714 -79.7008 85° East 309 356 11,100  Level Washington Center
07:13PM 37.8772 -79.5881 86° East 309 356 11,100  Level Washington Center
07:14PM 37.8850 -79.4806 85° East 309 356 11,100  Level Washington Center
07:15PM 37.8886 -79.3703 88° East 309 356 11,100  Level Washington Center
07:16PM 37.8939 -79.2628 86° East 309 356 11,100 -60 Level Washington Center
07:17PM 37.9014 -79.1525 85° East 309 356 11,000 -60 Descending Washington Center
07:18PM 37.9214 -79.0456 77° East 309 356 11,000  Level Washington Center
07:19PM 37.9897 -78.9828 36° Northeast 281 323 11,000  Level Washington Center
07:20PM 38.0664 -78.9281 29° Northeast 287 330 11,000  Level Washington Center
07:21PM 38.1408 -78.8733 30° Northeast 297 342 11,000  Level Washington Center
07:22PM 38.2175 -78.8214 28° Northeast 302 348 11,000  Level Washington Center
07:23PM 38.2919 -78.7636 31° Northeast 307 353 11,000  Level Washington Center
07:24PM 38.3664 -78.7111 29° Northeast 307 353 11,000  Level Washington Center
07:25PM 38.4408 -78.6561 30° Northeast 307 353 11,000  Level Washington Center
07:26PM 38.5172 -78.6008 30° Northeast 307 353 11,000  Level Washington Center
07:27PM 38.5914 -78.5481 29° Northeast 307 353 11,000  Level Washington Center
07:28PM 38.6658 -78.4925 30° Northeast 307 353 11,000  Level Washington Center
07:29PM 38.7422 -78.4342 31° Northeast 307 353 11,000  Level Washington Center
07:30PM 38.8164 -78.3811 29° Northeast 307 353 11,000  Level Washington Center
07:31PM 38.8908 -78.3253 30° Northeast 307 353 11,000  Level Washington Center
07:32PM 38.9669 -78.2694 30° Northeast 307 353 11,000  Level Washington Center
07:33PM 39.0433 -78.2133 30° Northeast 307 353 11,000  Level Washington Center
07:34PM 39.1175 -78.1572 30° Northeast 307 353 11,000  Level Washington Center
07:35PM 39.2000 -78.0958 30° Northeast 307 353 11,000  Level Washington Center
07:36PM 39.2761 -78.0394 30° Northeast 307 353 11,000  Level Washington Center
07:37PM 39.3544 -77.9831 29° Northeast 307 353 11,000  Level Washington Center
07:39PM 39.4167 -77.8500 59° Northeast 294 338 11,000  Level Potomac TRACON
07:39PM 39.4333 -77.7500 78° East 307 353 11,000  Level Potomac TRACON
07:41PM 39.4167 -77.6333 100° East 306 352 11,000  Level Potomac TRACON
07:42PM 39.4000 -77.5167 100° East 306 352 11,000  Level Potomac TRACON
07:43PM 39.3833 -77.4000 100° East 310 357 11,000  Level Potomac TRACON
07:44PM 39.4000 -77.3000 78° East 313 360 11,000  Level Potomac TRACON
07:45PM 39.4000 -77.1833 90° East 310 357 11,000  Level Potomac TRACON
07:46PM 39.4167 -77.0667 79° East 311 358 11,000  Level Potomac TRACON
07:47PM 39.4167 -76.9667 90° East 303 349 11,000  Level Potomac TRACON
07:48PM 39.4333 -76.8500 79° East 307 353 11,000  Level Potomac TRACON
07:49PM 39.4333 -76.7333 90° East 319 367 11,000  Level Potomac TRACON
07:50PM 39.4333 -76.6333 90° East 310 357 11,000  Level Potomac TRACON
07:51PM 39.4500 -76.5167 79° East 307 353 11,000  Level Potomac TRACON
07:52PM 39.4500 -76.4000 90° East 313 360 11,000  Level Potomac TRACON
07:53PM 39.4667 -76.3000 78° East 308 354 11,000 -540 Level Potomac TRACON
07:55PM 39.4833 -76.0833 84° East 304 350 9,500 -660 Descending Philadelphia TRACON
07:56PM 39.4833 -75.9667 90° East 294 338 9,000 -300 Descending Philadelphia TRACON
07:57PM 39.4833 -75.8667 90° East 297 342 9,000 -60 Level Philadelphia TRACON
07:58PM 39.5000 -75.7667 78° East 299 344 8,900 -720 Descending Philadelphia TRACON
07:59PM 39.4833 -75.6667 102° East 287 330 7,600 -960 Descending Philadelphia TRACON
08:00PM 39.4833 -75.5667 90° East 291 335 7,000 -300 Descending Philadelphia TRACON
08:01PM 39.4833 -75.4500 90° East 290 334 7,000  Level Philadelphia TRACON
08:02PM 39.4833 -75.3500 90° East 291 335 7,000 -480 Level Philadelphia TRACON
08:03PM 39.5000 -75.2500 78° East 288 331 6,100 -540 Descending Philadelphia TRACON
08:04PM 39.5500 -75.1667 52° Northeast 296 341 6,000 -60 Descending Philadelphia TRACON
08:05PM 39.6000 -75.1000 46° Northeast 293 337 6,000  Level Philadelphia TRACON
08:06PM 39.6667 -75.0333 38° Northeast 292 336 6,000  Level Philadelphia TRACON
08:07PM 39.7333 -74.9667 38° Northeast 290 334 6,000  Level Philadelphia TRACON
08:08PM 39.7833 -74.9000 46° Northeast 219 252 6,000 -360 Level Philadelphia TRACON
08:09PM 39.8167 -74.8500 49° Northeast 216 249 5,300 -720 Descending Philadelphia TRACON
08:10PM 39.8833 -74.8167 21° North 217 250 4,600 -660 Descending Philadelphia TRACON
08:11PM 39.9167 -74.8500 323° Northwest 182 209 4,000 -360 Descending Philadelphia TRACON
08:11PM 39.9333 -74.9000 294° West 165 190 4,000  Level Philadelphia TRACON
08:12PM 39.9333 -74.9667 270° West 162 186 4,000 -480 Level Philadelphia TRACON
08:14PM 39.9167 -75.0333 252° West 163 188 3,000 -900 Descending Philadelphia TRACON
08:15PM 39.9000 -75.1000 252° West 163 188 2,100 -840 Descending Philadelphia TRACON
08:16PM 39.9000 -75.1333 270° West 131 151 1,400 -780 Descending Philadelphia TRACON
08:16PM 39.8833 -75.1667 237° Southwest 129 148 800 -780 Descending Philadelphia TRACON
08:18PM 39.8667 -75.2333 257° West  Level FlightAware Approximate
08:25PM 39.8722 -75.2409 257° West  Level Estimated
08:26PM 39.8722 -75.2409 77° East  Level Estimated